createdAt,value
2022-08-26T00:01:31.984Z,8.13
2022-08-26T00:03:58.960Z,7.25
2022-08-26T00:06:26.309Z,7.32
2022-08-26T00:08:53.442Z,7.55
2022-08-26T00:11:26.920Z,7.78
2022-08-26T00:13:57.603Z,8.20
2022-08-26T00:16:26.311Z,7.18
2022-08-26T00:18:56.683Z,7.47
2022-08-26T00:21:23.253Z,6.90
2022-08-26T00:23:49.984Z,7.25
2022-08-26T00:26:17.049Z,7.32
2022-08-26T00:28:44.410Z,7.15
2022-08-26T00:31:11.271Z,6.63
2022-08-26T00:33:38.905Z,6.95
2022-08-26T00:36:06.629Z,7.57
2022-08-26T00:38:33.679Z,7.70
2022-08-26T00:41:00.519Z,8.05
2022-08-26T00:43:27.301Z,6.90
2022-08-26T00:46:01.220Z,8.40
2022-08-26T00:48:31.900Z,8.05
2022-08-26T00:51:21.333Z,7.85
2022-08-26T00:53:54.593Z,7.88
2022-08-26T00:56:38.403Z,7.00
2022-08-26T00:59:07.939Z,8.38
2022-08-26T01:01:34.924Z,7.97
2022-08-26T01:04:02.001Z,7.93
2022-08-26T01:06:28.883Z,7.82
2022-08-26T01:08:56.189Z,7.95
2022-08-26T01:11:24.366Z,8.32
2022-08-26T01:13:54.723Z,7.78
2022-08-26T01:16:22.569Z,8.13
2022-08-26T01:18:49.225Z,8.00
2022-08-26T01:21:23.258Z,6.57
2022-08-26T01:23:52.123Z,7.68
2022-08-26T01:26:29.004Z,7.88
2022-08-26T01:28:57.715Z,8.05
2022-08-26T01:31:27.619Z,7.10
2022-08-26T01:34:12.704Z,8.75
2022-08-26T01:36:40.043Z,7.60
2022-08-26T01:39:07.625Z,8.93
2022-08-26T01:41:35.163Z,8.00
2022-08-26T01:44:03.752Z,8.18
2022-08-26T01:46:30.987Z,8.15
2022-08-26T01:49:01.133Z,8.35
2022-08-26T01:51:28.043Z,7.88
2022-08-26T01:53:55.563Z,8.55
2022-08-26T01:56:23.601Z,9.07
2022-08-26T01:58:56.214Z,8.40
2022-08-26T02:01:24.281Z,8.68
2022-08-26T02:04:05.586Z,8.00
2022-08-26T02:06:32.954Z,8.85
2022-08-26T02:09:02.178Z,8.85
2022-08-26T02:11:29.001Z,8.35
2022-08-26T02:14:00.041Z,9.25
2022-08-26T02:16:28.015Z,10.13
2022-08-26T02:18:56.613Z,9.05
2022-08-26T02:21:26.385Z,8.35
2022-08-26T02:23:56.260Z,9.43
2022-08-26T02:26:24.597Z,8.82
2022-08-26T02:29:02.356Z,9.82
2022-08-26T02:31:29.609Z,9.23
2022-08-26T02:33:56.194Z,8.00
2022-08-26T02:36:28.583Z,8.27
2022-08-26T02:38:55.540Z,8.68
2022-08-26T02:41:23.102Z,8.40
2022-08-26T02:43:49.892Z,8.75
2022-08-26T02:46:21.428Z,8.77
2022-08-26T02:48:55.046Z,8.35
2022-08-26T02:51:21.622Z,7.82
2022-08-26T02:53:48.663Z,9.02
2022-08-26T02:56:15.307Z,8.05
2022-08-26T02:58:41.937Z,9.13
2022-08-26T03:01:08.726Z,8.90
2022-08-26T03:03:35.434Z,8.45
2022-08-26T03:06:02.241Z,8.27
2022-08-26T03:08:31.837Z,9.65
2022-08-26T03:10:59.324Z,9.27
2022-08-26T03:13:28.216Z,8.95
2022-08-26T03:15:55.233Z,9.48
2022-08-26T03:18:22.823Z,8.18
2022-08-26T03:20:50.465Z,9.73
2022-08-26T03:23:17.028Z,9.02
2022-08-26T03:25:52.755Z,9.50
2022-08-26T03:28:19.640Z,8.80
2022-08-26T03:30:48.106Z,9.80
2022-08-26T03:33:15.555Z,9.00
2022-08-26T03:35:43.619Z,9.00
2022-08-26T03:38:10.935Z,8.88
2022-08-26T03:40:38.814Z,9.38
2022-08-26T03:43:09.850Z,9.10
2022-08-26T03:45:37.158Z,9.40
2022-08-26T03:48:04.363Z,9.30
2022-08-26T03:50:34.304Z,9.15
2022-08-26T03:53:03.197Z,9.05
2022-08-26T03:55:32.171Z,9.50
2022-08-26T03:57:59.567Z,10.35
2022-08-26T04:00:26.434Z,9.55
2022-08-26T04:02:53.206Z,8.63
2022-08-26T04:05:21.740Z,9.60
2022-08-26T04:07:49.529Z,11.02
2022-08-26T04:10:19.442Z,10.35
2022-08-26T04:12:47.309Z,9.68
2022-08-26T04:15:16.061Z,9.63
2022-08-26T04:17:44.397Z,11.00
2022-08-26T04:20:14.023Z,10.18
2022-08-26T04:22:43.102Z,9.88
2022-08-26T04:25:10.474Z,10.55
2022-08-26T04:27:37.158Z,9.90
2022-08-26T04:30:05.269Z,11.00
2022-08-26T04:32:32.050Z,10.77
2022-08-26T04:34:58.638Z,10.70
2022-08-26T04:37:27.269Z,10.75
2022-08-26T04:39:54.074Z,11.90
2022-08-26T04:42:26.038Z,10.63
2022-08-26T04:44:52.864Z,10.95
2022-08-26T04:47:19.496Z,10.63
2022-08-26T04:49:46.043Z,10.40
2022-08-26T04:52:12.753Z,10.68
2022-08-26T04:54:39.473Z,10.50
2022-08-26T04:57:08.622Z,11.95
2022-08-26T04:59:39.064Z,11.10
2022-08-26T05:02:07.106Z,9.90
2022-08-26T05:04:33.852Z,10.02
2022-08-26T05:07:02.915Z,12.32
2022-08-26T05:09:29.823Z,10.95
2022-08-26T05:11:57.074Z,10.57
2022-08-26T05:14:23.584Z,11.02
2022-08-26T05:16:50.728Z,10.35
2022-08-26T05:19:19.227Z,10.60
2022-08-26T05:21:47.280Z,10.93
2022-08-26T05:24:14.211Z,10.57
2022-08-26T05:26:41.950Z,11.00
2022-08-26T05:29:11.429Z,9.85
2022-08-26T05:31:38.031Z,10.45
2022-08-26T05:34:04.785Z,10.30
2022-08-26T05:36:34.069Z,10.70
2022-08-26T05:39:02.399Z,10.02
2022-08-26T05:41:36.481Z,11.02
2022-08-26T05:44:07.713Z,10.88
2022-08-26T05:46:36.638Z,11.25
2022-08-26T05:49:04.956Z,10.32
2022-08-26T05:51:32.753Z,10.57
2022-08-26T05:54:01.737Z,9.93
2022-08-26T05:56:30.186Z,9.82
2022-08-26T05:58:58.421Z,10.27
2022-08-26T06:01:27.084Z,9.93
2022-08-26T06:03:56.886Z,10.13
2022-08-26T06:06:29.509Z,10.23
2022-08-26T06:08:59.414Z,11.02
2022-08-26T06:11:27.463Z,9.75
2022-08-26T06:13:58.915Z,9.95
2022-08-26T06:16:28.871Z,9.50
2022-08-26T06:18:55.557Z,11.35
2022-08-26T06:21:26.701Z,10.85
2022-08-26T06:24:15.000Z,10.45
2022-08-26T06:26:43.374Z,9.55
2022-08-26T06:29:24.294Z,10.85
2022-08-26T06:31:52.895Z,9.30
2022-08-26T06:34:19.940Z,10.43
2022-08-26T06:36:47.408Z,9.75
2022-08-26T06:39:15.976Z,8.93
2022-08-26T06:41:45.031Z,10.13
2022-08-26T06:44:14.762Z,10.45
2022-08-26T06:46:42.110Z,9.73
2022-08-26T06:49:12.522Z,9.45
2022-08-26T06:51:40.096Z,10.40
2022-08-26T06:54:07.275Z,9.25
2022-08-26T06:56:36.856Z,9.80
2022-08-26T06:59:04.099Z,9.27
2022-08-26T07:01:37.618Z,9.20
2022-08-26T07:04:07.858Z,9.77
2022-08-26T07:06:40.643Z,9.25
2022-08-26T07:09:09.805Z,9.30
2022-08-26T07:11:37.652Z,8.70
2022-08-26T07:14:05.356Z,9.77
2022-08-26T07:16:32.346Z,9.25
2022-08-26T07:18:59.551Z,10.20
2022-08-26T07:21:28.287Z,10.05
2022-08-26T07:24:00.057Z,8.85
2022-08-26T07:26:29.814Z,8.70
2022-08-26T07:28:58.217Z,8.85
2022-08-26T07:31:27.719Z,9.00
2022-08-26T07:33:54.384Z,8.23
2022-08-26T07:36:22.077Z,8.90
2022-08-26T07:38:49.087Z,9.40
2022-08-26T07:41:17.597Z,8.00
2022-08-26T07:43:45.499Z,7.97
2022-08-26T07:46:18.539Z,8.40
2022-08-26T07:48:53.520Z,9.88
2022-08-26T07:51:21.264Z,8.45
2022-08-26T07:53:52.314Z,8.00
2022-08-26T07:56:20.647Z,7.82
2022-08-26T07:58:51.346Z,7.38
2022-08-26T08:01:23.807Z,7.57
2022-08-26T08:03:51.886Z,8.32
2022-08-26T08:06:22.819Z,8.02
2022-08-26T08:08:54.140Z,7.80
2022-08-26T08:11:21.635Z,7.40
2022-08-26T08:13:49.698Z,7.35
2022-08-26T08:16:24.863Z,7.63
2022-08-26T08:18:53.482Z,8.05
2022-08-26T08:21:22.074Z,6.72
2022-08-26T08:23:53.843Z,7.13
2022-08-26T08:26:20.699Z,6.47
2022-08-26T08:28:47.993Z,6.20
2022-08-26T08:31:56.203Z,7.28
2022-08-26T08:34:15.742Z,7.10
2022-08-26T08:36:42.315Z,8.07
2022-08-26T08:39:09.264Z,7.90
2022-08-26T08:41:45.102Z,7.03
2022-08-26T08:44:19.243Z,6.72
2022-08-26T08:46:50.125Z,6.70
2022-08-26T08:49:17.723Z,7.35
2022-08-26T08:51:57.365Z,6.15
2022-08-26T08:54:26.469Z,6.72
2022-08-26T08:57:09.431Z,7.22
2022-08-26T08:59:41.699Z,8.05
2022-08-26T09:02:20.144Z,7.22
2022-08-26T09:05:20.943Z,7.57
2022-08-26T09:08:11.564Z,7.50
2022-08-26T09:10:49.890Z,7.35
2022-08-26T09:13:26.034Z,6.68
2022-08-26T09:16:19.068Z,6.97
2022-08-26T09:19:08.374Z,6.78
2022-08-26T09:21:34.980Z,6.80
2022-08-26T09:24:01.621Z,6.53
2022-08-26T09:26:42.487Z,7.68
2022-08-26T09:31:48.487Z,6.90
2022-08-26T09:34:27.074Z,6.28
2022-08-26T09:36:58.226Z,6.55
2022-08-26T09:39:29.630Z,6.35
2022-08-26T09:42:09.711Z,5.68
2022-08-26T09:44:53.363Z,7.03
2022-08-26T09:47:46.136Z,6.25
2022-08-26T09:50:32.136Z,6.65
2022-08-26T09:53:20.985Z,6.53
2022-08-26T09:56:10.946Z,7.25
2022-08-26T09:58:43.294Z,6.43
2022-08-26T10:01:19.441Z,7.32
2022-08-26T10:03:47.117Z,7.57
2022-08-26T10:06:18.261Z,7.07
2022-08-26T10:08:52.203Z,7.28
2022-08-26T10:11:26.617Z,7.53
2022-08-26T10:14:00.098Z,7.18
2022-08-26T10:16:44.341Z,6.78
2022-08-26T10:19:18.851Z,6.47
2022-08-26T10:22:04.471Z,8.20
2022-08-26T10:24:46.380Z,6.60
2022-08-26T10:27:36.612Z,8.55
2022-08-26T10:30:38.425Z,6.40
2022-08-26T10:33:08.468Z,6.97
2022-08-26T10:35:37.847Z,7.00
2022-08-26T10:38:10.813Z,6.85
2022-08-26T10:41:01.127Z,6.60
2022-08-26T10:43:32.803Z,7.75
2022-08-26T10:46:04.359Z,8.63
2022-08-26T10:48:43.126Z,6.10
2022-08-26T10:51:11.687Z,7.07
2022-08-26T10:54:03.250Z,7.32
2022-08-26T10:56:44.652Z,6.20
2022-08-26T10:59:24.531Z,6.95
2022-08-26T11:02:10.410Z,7.43
2022-08-26T11:04:49.323Z,6.43
2022-08-26T11:07:47.105Z,7.47
2022-08-26T11:10:19.106Z,6.10
2022-08-26T11:12:49.180Z,7.15
2022-08-26T11:15:24.510Z,6.88
2022-08-26T11:17:51.510Z,6.28
2022-08-26T11:20:29.966Z,7.68
2022-08-26T11:23:28.249Z,7.78
2022-08-26T11:26:10.262Z,7.90
2022-08-26T11:28:49.215Z,6.78
2022-08-26T11:31:19.260Z,7.07
2022-08-26T11:33:58.209Z,7.95
2022-08-26T11:36:46.663Z,3.30
2022-08-26T11:39:20.917Z,2.88
2022-08-26T11:41:49.736Z,2.78
2022-08-26T11:44:25.597Z,2.60
2022-08-26T11:46:59.997Z,2.83
2022-08-26T11:49:31.570Z,2.83
2022-08-26T11:52:11.806Z,2.78
2022-08-26T11:54:38.800Z,2.88
2022-08-26T11:57:11.913Z,3.17
2022-08-26T11:59:40.290Z,2.90
2022-08-26T12:02:13.795Z,3.15
2022-08-26T12:04:43.542Z,2.65
2022-08-26T12:07:10.356Z,3.20
2022-08-26T12:09:39.042Z,3.05
2022-08-26T12:12:17.250Z,3.00
2022-08-26T12:14:44.393Z,3.17
2022-08-26T12:17:27.565Z,2.90
2022-08-26T12:19:54.128Z,3.20
2022-08-26T12:22:34.653Z,3.75
2022-08-26T12:25:08.712Z,3.53
2022-08-26T12:27:41.623Z,4.72
2022-08-26T12:30:20.217Z,3.60
2022-08-26T12:32:57.642Z,3.13
2022-08-26T12:35:29.464Z,3.47
2022-08-26T12:37:56.511Z,3.60
2022-08-26T12:40:27.950Z,3.38
2022-08-26T12:42:55.089Z,3.83
2022-08-26T12:45:53.728Z,3.25
2022-08-26T12:48:26.409Z,2.95
2022-08-26T12:50:53.659Z,3.03
2022-08-26T12:53:22.491Z,3.25
2022-08-26T12:55:52.296Z,2.22
2022-08-26T12:58:21.971Z,2.70
2022-08-26T13:01:02.610Z,3.25
2022-08-26T13:03:35.418Z,3.60
2022-08-26T13:06:16.488Z,4.57
2022-08-26T13:08:57.908Z,3.97
2022-08-26T13:11:30.575Z,3.92
2022-08-26T13:14:07.163Z,3.80
2022-08-26T13:16:34.453Z,4.13
2022-08-26T13:19:04.202Z,4.60
2022-08-26T13:21:37.338Z,4.38
2022-08-26T13:24:15.438Z,4.82
2022-08-26T13:26:43.528Z,5.53
2022-08-26T13:29:11.031Z,5.38
2022-08-26T13:31:39.889Z,5.28
2022-08-26T13:34:08.290Z,5.13
2022-08-26T13:36:34.864Z,5.72
2022-08-26T13:39:01.478Z,5.57
2022-08-26T13:41:29.445Z,4.18
2022-08-26T13:43:56.754Z,4.82
2022-08-26T13:46:26.309Z,4.78
2022-08-26T13:48:54.615Z,5.32
2022-08-26T13:51:22.913Z,5.80
2022-08-26T13:53:50.217Z,6.25
2022-08-26T13:56:16.867Z,6.05
2022-08-26T13:58:47.922Z,6.13
2022-08-26T14:01:17.562Z,7.25
2022-08-26T14:03:44.758Z,5.97
2022-08-26T14:06:11.695Z,5.70
2022-08-26T14:08:39.185Z,6.43
2022-08-26T14:11:06.254Z,5.60
2022-08-26T14:13:32.892Z,5.65
2022-08-26T14:16:01.578Z,5.82
2022-08-26T14:18:31.130Z,6.22
2022-08-26T14:20:59.004Z,6.50
2022-08-26T14:23:26.232Z,6.70
2022-08-26T14:25:53.085Z,7.32
2022-08-26T14:28:19.787Z,6.13
2022-08-26T14:30:53.353Z,4.90
2022-08-26T14:33:29.182Z,6.30
2022-08-26T14:36:15.767Z,8.90
2022-08-26T14:38:42.353Z,8.43
2022-08-26T14:41:09.596Z,7.65
2022-08-26T14:43:37.348Z,7.90
2022-08-26T14:46:04.390Z,7.22
2022-08-26T14:48:30.971Z,9.15
2022-08-26T14:50:57.561Z,7.88
2022-08-26T14:53:42.859Z,6.60
2022-08-26T14:56:12.633Z,7.35
2022-08-26T14:58:41.617Z,8.23
2022-08-26T15:01:08.146Z,8.07
2022-08-26T15:03:34.749Z,7.00
2022-08-26T15:06:01.390Z,7.97
2022-08-26T15:08:27.994Z,6.97
2022-08-26T15:10:54.629Z,7.05
2022-08-26T15:13:21.171Z,7.72
2022-08-26T15:15:47.750Z,7.75
2022-08-26T15:18:14.558Z,7.00
2022-08-26T15:20:41.154Z,6.28
2022-08-26T15:23:08.154Z,6.78
2022-08-26T15:25:34.979Z,6.50
2022-08-26T15:28:01.619Z,6.45
2022-08-26T15:30:28.236Z,7.70
2022-08-26T15:32:54.872Z,6.75
2022-08-26T15:35:21.487Z,6.82
2022-08-26T15:37:48.124Z,6.75
2022-08-26T15:40:14.856Z,6.15
2022-08-26T15:42:41.421Z,6.88
2022-08-26T15:45:08.264Z,7.00
2022-08-26T15:47:46.630Z,6.10
2022-08-26T15:50:22.095Z,6.25
2022-08-26T15:52:48.737Z,5.47
2022-08-26T15:55:15.300Z,5.22
2022-08-26T15:57:42.144Z,5.60
2022-08-26T16:00:09.604Z,6.18
2022-08-26T16:02:36.237Z,6.65
2022-08-26T16:05:02.949Z,6.35
2022-08-26T16:07:29.611Z,6.28
2022-08-26T16:09:56.891Z,7.60
2022-08-26T16:12:23.531Z,6.38
2022-08-26T16:14:51.595Z,6.40
2022-08-26T16:17:20.288Z,6.78
2022-08-26T16:19:47.229Z,5.88
2022-08-26T16:22:13.867Z,5.97
2022-08-26T16:24:40.490Z,6.70
2022-08-26T16:27:07.244Z,6.47
2022-08-26T16:29:33.874Z,6.43
2022-08-26T16:32:00.470Z,7.40
2022-08-26T16:34:27.228Z,7.40
2022-08-26T16:36:54.183Z,7.53
2022-08-26T16:39:20.922Z,7.40
2022-08-26T16:41:47.486Z,7.68
2022-08-26T16:44:14.103Z,7.70
2022-08-26T16:46:41.253Z,8.25
2022-08-26T16:49:08.091Z,8.57
2022-08-26T16:51:37.923Z,8.95
2022-08-26T16:54:05.205Z,8.02
2022-08-26T16:56:34.537Z,9.60
2022-08-26T16:59:03.285Z,8.82
2022-08-26T17:01:30.044Z,9.30
2022-08-26T17:03:58.533Z,8.32
2022-08-26T17:06:25.119Z,8.82
2022-08-26T17:08:53.134Z,8.85
2022-08-26T17:11:19.847Z,9.00
2022-08-26T17:13:46.493Z,8.57
2022-08-26T17:16:13.707Z,10.75
2022-08-26T17:18:40.602Z,9.73
2022-08-26T17:21:09.668Z,9.32
2022-08-26T17:23:38.871Z,9.20
2022-08-26T17:26:05.888Z,9.40
2022-08-26T17:28:32.723Z,9.45
2022-08-26T17:30:59.856Z,10.10
2022-08-26T17:33:27.262Z,11.05
2022-08-26T17:35:54.896Z,10.45
2022-08-26T17:38:21.628Z,10.95
2022-08-26T17:40:49.194Z,10.57
2022-08-26T17:43:16.142Z,9.98
2022-08-26T17:45:43.402Z,9.52
2022-08-26T17:48:11.218Z,9.85
2022-08-26T17:50:40.143Z,9.55
2022-08-26T17:53:06.966Z,10.85
2022-08-26T17:55:33.648Z,9.70
2022-08-26T17:58:00.199Z,10.85
2022-08-26T18:00:30.507Z,10.38
2022-08-26T18:02:57.120Z,10.57
2022-08-26T18:05:23.869Z,10.25
2022-08-26T18:07:51.518Z,10.80
2022-08-26T18:10:19.168Z,10.40
2022-08-26T18:12:47.303Z,10.75
2022-08-26T18:15:15.452Z,10.77
2022-08-26T18:17:42.118Z,12.73
2022-08-26T18:20:10.653Z,12.65
2022-08-26T18:22:37.307Z,13.23
2022-08-26T18:25:05.142Z,13.35
2022-08-26T18:27:31.826Z,13.20
2022-08-26T18:29:58.387Z,12.15
2022-08-26T18:32:24.995Z,12.32
2022-08-26T18:34:51.725Z,12.82
2022-08-26T18:37:18.223Z,12.65
2022-08-26T18:39:44.770Z,13.35
2022-08-26T18:42:11.434Z,13.75
2022-08-26T18:44:38.001Z,14.10
2022-08-26T18:47:04.900Z,13.70
2022-08-26T18:49:31.820Z,13.93
2022-08-26T18:51:58.399Z,14.43
2022-08-26T18:54:24.992Z,15.25
2022-08-26T18:56:51.864Z,15.63
2022-08-26T18:59:18.550Z,15.30
2022-08-26T19:01:45.552Z,16.52
2022-08-26T19:04:15.410Z,15.43
2022-08-26T19:06:43.986Z,15.57
2022-08-26T19:09:11.768Z,16.38
2022-08-26T19:11:43.194Z,14.32
2022-08-26T19:14:13.674Z,15.30
2022-08-26T19:16:42.629Z,14.18
2022-08-26T19:19:09.436Z,14.55
2022-08-26T19:21:37.093Z,13.70
2022-08-26T19:24:07.279Z,12.40
2022-08-26T19:26:34.329Z,12.25
2022-08-26T19:29:01.301Z,13.20
2022-08-26T19:31:28.494Z,13.65
2022-08-26T19:33:56.738Z,13.88
2022-08-26T19:36:25.429Z,12.82
2022-08-26T19:38:52.742Z,10.98
2022-08-26T19:41:25.474Z,11.60
2022-08-26T19:43:58.568Z,11.23
2022-08-26T19:46:26.562Z,11.98
2022-08-26T19:48:55.721Z,11.95
2022-08-26T19:51:27.539Z,12.20
2022-08-26T19:53:56.431Z,10.77
2022-08-26T19:56:23.273Z,12.02
2022-08-26T19:58:50.648Z,10.90
2022-08-26T20:01:18.721Z,11.02
2022-08-26T20:03:45.628Z,11.35
2022-08-26T20:06:13.921Z,12.77
2022-08-26T20:08:41.193Z,11.82
2022-08-26T20:11:11.939Z,11.68
2022-08-26T20:13:40.214Z,11.15
2022-08-26T20:16:07.671Z,11.13
2022-08-26T20:18:52.802Z,11.35
2022-08-26T20:21:28.249Z,9.85
2022-08-26T20:24:00.891Z,9.25
2022-08-26T20:26:32.391Z,9.68
2022-08-26T20:28:59.263Z,9.65
2022-08-26T20:31:26.438Z,9.48
2022-08-26T20:33:53.685Z,9.52
2022-08-26T20:36:22.052Z,10.02
2022-08-26T20:38:49.718Z,10.38
2022-08-26T20:41:17.056Z,10.75
2022-08-26T20:43:44.220Z,11.07
2022-08-26T20:46:17.786Z,11.07
2022-08-26T20:48:46.828Z,9.82
2022-08-26T20:51:13.628Z,9.57
2022-08-26T20:53:40.376Z,9.40
2022-08-26T20:56:09.249Z,9.80
2022-08-26T20:58:37.073Z,9.45
2022-08-26T21:01:07.788Z,9.88
2022-08-26T21:03:35.394Z,10.40
2022-08-26T21:06:03.843Z,9.82
2022-08-26T21:08:33.104Z,10.63
2022-08-26T21:11:00.633Z,10.10
2022-08-26T21:13:29.004Z,11.13
2022-08-26T21:15:59.716Z,10.90
2022-08-26T21:18:26.375Z,11.77
2022-08-26T21:20:52.973Z,9.98
2022-08-26T21:23:19.611Z,11.43
2022-08-26T21:25:46.922Z,11.60
2022-08-26T21:28:13.762Z,10.73
2022-08-26T21:30:40.962Z,10.30
2022-08-26T21:33:08.073Z,10.43
2022-08-26T21:35:34.807Z,11.23
2022-08-26T21:38:01.596Z,10.80
2022-08-26T21:40:28.343Z,11.68
2022-08-26T21:42:54.973Z,12.05
2022-08-26T21:45:21.705Z,11.32
2022-08-26T21:47:48.454Z,10.95
2022-08-26T21:50:17.994Z,11.45
2022-08-26T21:52:44.578Z,10.32
2022-08-26T21:55:11.555Z,10.27
2022-08-26T21:57:38.450Z,9.60
2022-08-26T22:00:09.123Z,10.00
2022-08-26T22:02:37.122Z,11.15
2022-08-26T22:05:04.196Z,10.23
2022-08-26T22:07:30.827Z,10.48
2022-08-26T22:09:57.388Z,10.45
2022-08-26T22:12:23.953Z,10.60
2022-08-26T22:14:50.560Z,11.02
2022-08-26T22:17:17.178Z,10.02
2022-08-26T22:19:46.332Z,10.23
2022-08-26T22:22:13.368Z,10.43
2022-08-26T22:24:40.109Z,11.13
2022-08-26T22:27:06.883Z,10.57
2022-08-26T22:29:33.505Z,11.40
2022-08-26T22:32:01.188Z,9.73
2022-08-26T22:34:28.370Z,10.15
2022-08-26T22:36:55.197Z,10.02
2022-08-26T22:39:24.336Z,10.70
2022-08-26T22:41:52.798Z,9.98
2022-08-26T22:44:20.710Z,9.88
2022-08-26T22:46:48.365Z,10.88
2022-08-26T22:49:16.622Z,10.32
2022-08-26T22:51:44.560Z,10.30
2022-08-26T22:54:11.257Z,9.95
2022-08-26T22:56:38.173Z,9.20
2022-08-26T22:59:06.963Z,9.00
2022-08-26T23:01:42.515Z,9.38
2022-08-26T23:04:09.542Z,9.30
2022-08-26T23:06:37.724Z,9.63
2022-08-26T23:09:06.364Z,9.23
2022-08-26T23:11:33.031Z,9.63
2022-08-26T23:14:02.919Z,8.90
2022-08-26T23:16:39.321Z,9.35
2022-08-26T23:19:06.958Z,10.35
2022-08-26T23:21:33.548Z,10.27
2022-08-26T23:24:01.091Z,9.80
2022-08-26T23:26:28.236Z,10.27
2022-08-26T23:28:55.308Z,11.27
2022-08-26T23:31:21.977Z,9.60
2022-08-26T23:34:07.147Z,10.05
2022-08-26T23:36:34.920Z,11.05
2022-08-26T23:39:01.908Z,10.35
2022-08-26T23:41:28.515Z,10.45
2022-08-26T23:43:55.174Z,11.07
2022-08-26T23:46:21.857Z,11.57
2022-08-26T23:48:48.424Z,11.85
2022-08-26T23:51:34.305Z,11.07
2022-08-26T23:54:00.914Z,11.30
2022-08-26T23:56:29.177Z,11.10
2022-08-26T23:58:55.812Z,11.23
